This is the latest recevied weather packets stored in our database for station/object K5UBE. If no packets are shown the sender has not sent any weather packets the latest 10 day(s).
| Time | Temp. | Humidity | Pressure | Rain* | Wind** | Luminosity | Snow |
|---|---|---|---|---|---|---|---|
| 1777570127 | 13.89° C | 56% | 1019.4 hPa | 0 mm | - | - | - |
| 1777569823 | 13.33° C | 55% | 1019.4 hPa | 0 mm | - | - | - |
| 1777569519 | 12.78° C | 59% | 1019.6 hPa | 0 mm | - | - | - |
| 1777569216 | 13.89° C | 56% | 1019.7 hPa | 0 mm | - | - | - |
| 1777568912 | 13.33° C | 60% | 1019.6 hPa | 0 mm | - | - | - |
| 1777568609 | 12.78° C | 61% | 1019.7 hPa | 0 mm | - | - | - |
| 1777568307 | 12.22° C | 62% | 1019.7 hPa | 0 mm | - | - | - |
| 1777568002 | 12.78° C | 61% | 1019.7 hPa | 0 mm | - | - | - |
| 1777567700 | 12.22° C | 63% | 1019.8 hPa | 0 mm | - | - | - |
| 1777567396 | 12.22° C | 64% | 1019.9 hPa | 0 mm | - | - | - |
| 1777567095 | 11.67° C | 66% | 1020 hPa | 0 mm | - | - | - |
| 1777566792 | 11.11° C | 67% | 1020.1 hPa | 0 mm | - | - | - |
| 1777566489 | 11.67° C | 66% | 1020.2 hPa | 0 mm | - | - | - |
| 1777566187 | 11.11° C | 68% | 1020 hPa | 0 mm | - | - | - |
| 1777565883 | 11.11° C | 67% | 1019.9 hPa | 0 mm | - | - | - |
| 1777565579 | 11.67° C | 67% | 1019.9 hPa | 0 mm | - | - | - |
| 1777565276 | 11.11° C | 68% | 1019.8 hPa | 0 mm | - | - | - |
| 1777564972 | 11.11° C | 69% | 1019.8 hPa | 0 mm | - | - | - |
| 1777564667 | 10.56° C | 70% | 1019.6 hPa | 0 mm | - | - | - |
| 1777564363 | 10.56° C | 69% | 1019.8 hPa | 0 mm | - | - | - |
| 1777564059 | 10.56° C | 70% | 1019.7 hPa | 0 mm | - | - | - |
| 1777563756 | 10.56° C | 70% | 1019.4 hPa | 0 mm | - | - | - |
| 1777563452 | 10.56° C | 71% | 1019.7 hPa | 0 mm | - | - | - |
| 1777563151 | 10° C | 71% | 1019.3 hPa | 0 mm | - | - | - |
| 1777562848 | 10° C | 72% | 1019.7 hPa | 0 mm | - | - | - |
* Rain latest hour (hover to see other rain measurements)
** Current wind speed in m/s (hover to see current wind gust speed)